Time;durP1;ratioP1;P1;durP2;ratioP2;P2;SDS_P1;SDS_P2;PMS_P1;PMS_P2;Temp;Humidity;BMP_temperature;BMP_pressure;BME280_temperature;BME280_humidity;BME280_pressure;Samples;Min_cycle;Max_cycle;Signal;HPM_P1;HPM_P2
2021/04/26 00:00:39;;;;;;;4.20;2.17;;;3.60;93.60;;;;;;4979591;28;20035;-89
2021/04/26 00:03:04;;;;;;;2.38;1.63;;;3.50;93.80;;;;;;4974713;28;20058;-89
2021/04/26 00:05:30;;;;;;;4.88;2.17;;;3.40;94.10;;;;;;4974887;28;20448;-88
2021/04/26 00:07:57;;;;;;;3.95;1.92;;;3.40;94.20;;;;;;4973662;28;20589;-88
2021/04/26 00:10:24;;;;;;;8.18;2.30;;;3.40;94.00;;;;;;4974542;28;20027;-88
2021/04/26 00:12:51;;;;;;;3.03;2.10;;;3.30;94.00;;;;;;4974034;28;20057;-87
2021/04/26 00:15:27;;;;;;;5.93;2.00;;;3.30;94.50;;;;;;4975210;28;20085;-88
2021/04/26 00:17:53;;;;;;;3.63;2.05;;;3.30;94.60;;;;;;4973751;28;20038;-87
2021/04/26 00:20:24;;;;;;;3.72;2.28;;;3.40;94.70;;;;;;4958132;28;20138;-88
2021/04/26 00:22:50;;;;;;;6.07;2.70;;;3.40;94.80;;;;;;4974068;28;20126;-89
2021/04/26 00:25:16;;;;;;;7.10;2.35;;;3.40;94.90;;;;;;4991134;28;20089;-88
2021/04/26 00:27:42;;;;;;;5.15;2.30;;;3.40;95.20;;;;;;4973166;28;20462;-88
2021/04/26 00:30:11;;;;;;;4.53;2.30;;;3.40;95.40;;;;;;4971419;28;20036;-88
2021/04/26 00:32:37;;;;;;;4.68;2.33;;;3.40;95.40;;;;;;4980039;28;20070;-88
2021/04/26 00:35:04;;;;;;;2.92;1.83;;;3.50;95.30;;;;;;4974670;28;20066;-88
2021/04/26 00:37:30;;;;;;;3.38;1.90;;;3.40;95.90;;;;;;4990481;28;20253;-88
2021/04/26 00:39:55;;;;;;;3.67;1.70;;;3.40;96.00;;;;;;4969536;28;20039;-88
2021/04/26 00:42:21;;;;;;;2.88;1.83;;;3.40;96.30;;;;;;4989111;28;20035;-88
2021/04/26 00:44:47;;;;;;;2.65;1.80;;;3.40;96.50;;;;;;4990231;28;20030;-88
2021/04/26 00:47:12;;;;;;;3.78;1.92;;;3.40;97.10;;;;;;4989086;28;20038;-87
2021/04/26 00:49:38;;;;;;;5.30;2.17;;;3.30;96.50;;;;;;4958095;28;20381;-88
2021/04/26 00:52:05;;;;;;;3.58;2.08;;;3.30;97.00;;;;;;4973083;28;20034;-88
2021/04/26 00:54:32;;;;;;;5.47;3.28;;;3.20;96.90;;;;;;4990383;28;20046;-88
2021/04/26 00:56:58;;;;;;;6.10;2.00;;;3.20;98.00;;;;;;4990361;28;20043;-88
2021/04/26 00:59:25;;;;;;;3.50;2.08;;;3.20;98.90;;;;;;4971401;28;20031;-88
2021/04/26 01:01:51;;;;;;;5.35;2.15;;;3.10;98.80;;;;;;4995088;28;20130;-88
2021/04/26 01:04:17;;;;;;;2.80;1.67;;;3.00;99.30;;;;;;4973571;28;20070;-88
2021/04/26 01:06:43;;;;;;;4.13;1.83;;;2.90;99.70;;;;;;4973664;28;20042;-89
2021/04/26 01:09:09;;;;;;;4.03;2.00;;;2.90;99.90;;;;;;4984313;28;20027;-89
2021/04/26 01:12:11;;;;;;;2.92;1.90;;;2.80;99.90;;;;;;4956408;28;20026;-88
2021/04/26 01:14:59;;;;;;;3.88;1.63;;;2.80;99.90;;;;;;4960622;28;20118;-88
2021/04/26 01:17:28;;;;;;;3.42;2.40;;;2.70;99.90;;;;;;4983435;28;20015;-88
2021/04/26 01:20:21;;;;;;;6.05;2.25;;;2.70;99.90;;;;;;4984159;28;20054;-85
2021/04/26 01:23:25;;;;;;;3.15;1.92;;;2.70;99.90;;;;;;4989573;28;20035;-88
2021/04/26 01:25:52;;;;;;;2.38;1.75;;;2.60;99.90;;;;;;4989442;28;20058;-88
2021/04/26 01:28:37;;;;;;;3.63;2.13;;;2.60;99.90;;;;;;4988544;28;20027;-88
2021/04/26 01:31:19;;;;;;;5.85;1.88;;;2.50;99.90;;;;;;4957132;28;20077;-89
2021/04/26 01:33:50;;;;;;;2.95;2.05;;;2.50;99.90;;;;;;4989106;28;20109;-86
2021/04/26 01:36:21;;;;;;;3.08;1.92;;;2.40;99.90;;;;;;4973363;28;20022;-87
2021/04/26 01:38:55;;;;;;;2.53;1.80;;;2.50;99.90;;;;;;4971303;28;20026;-88
2021/04/26 01:41:25;;;;;;;2.45;1.65;;;2.30;99.90;;;;;;4972745;28;20039;-88
2021/04/26 01:43:54;;;;;;;7.60;1.85;;;2.30;99.90;;;;;;4956763;28;20038;-89
2021/04/26 01:46:22;;;;;;;2.90;2.20;;;2.30;99.90;;;;;;4969643;28;20062;-87
2021/04/26 01:48:51;;;;;;;5.53;2.42;;;2.20;99.90;;;;;;4969895;28;20027;-88
2021/04/26 01:51:18;;;;;;;8.15;3.63;;;2.20;99.90;;;;;;4971371;28;20031;-88
2021/04/26 01:53:47;;;;;;;10.00;3.58;;;2.20;99.90;;;;;;4971647;28;20035;-88
2021/04/26 01:56:16;;;;;;;6.22;2.72;;;2.20;99.90;;;;;;4972230;28;20037;-85
2021/04/26 01:58:48;;;;;;;3.92;2.30;;;2.20;99.90;;;;;;4987914;28;20031;-88
2021/04/26 02:01:17;;;;;;;4.78;2.00;;;2.20;99.90;;;;;;4972021;28;20502;-87
2021/04/26 02:03:49;;;;;;;2.95;1.90;;;2.20;99.90;;;;;;4972250;28;20045;-88
2021/04/26 02:06:35;;;;;;;3.88;1.83;;;2.00;99.90;;;;;;4986629;28;20093;-88
2021/04/26 02:09:39;;;;;;;4.35;1.65;;;1.90;99.90;;;;;;4976799;28;20031;-88
2021/04/26 02:12:11;;;;;;;5.30;2.40;;;1.80;99.90;;;;;;4980723;28;20510;-87
2021/04/26 02:14:41;;;;;;;6.13;2.47;;;1.80;99.90;;;;;;4968888;28;20038;-88
2021/04/26 02:17:07;;;;;;;2.33;2.13;;;1.70;99.90;;;;;;4972991;28;20034;-88
2021/04/26 02:19:34;;;;;;;3.50;1.85;;;1.70;99.90;;;;;;4971560;28;20486;-90
2021/04/26 02:22:01;;;;;;;3.05;1.88;;;1.70;99.90;;;;;;4971472;28;20066;-89
2021/04/26 02:24:28;;;;;;;3.80;2.10;;;1.60;99.90;;;;;;4972517;28;20050;-88
2021/04/26 02:26:54;;;;;;;3.92;2.00;;;1.50;99.90;;;;;;4988260;28;20532;-88
2021/04/26 02:29:19;;;;;;;4.68;2.22;;;1.40;99.90;;;;;;4955311;28;20041;-85
2021/04/26 02:31:53;;;;;;;3.83;2.13;;;1.30;99.90;;;;;;4954592;28;20030;-86
2021/04/26 02:34:50;;;;;;;5.07;2.22;;;1.30;99.90;;;;;;4971722;28;20031;-89
2021/04/26 02:37:37;;;;;;;4.57;2.10;;;1.30;99.90;;;;;;4952223;28;20039;-89
2021/04/26 02:40:04;;;;;;;;;;;1.30;99.90;;;;;;4983536;28;20699;-87
2021/04/26 02:42:34;;;;;;;4.47;2.20;;;1.30;99.90;;;;;;4996752;28;19914;-88
2021/04/26 02:45:07;;;;;;;4.22;2.30;;;1.30;99.90;;;;;;4953212;28;20043;-90
2021/04/26 02:47:35;;;;;;;2.75;1.90;;;1.30;99.90;;;;;;4986668;28;20037;-87
2021/04/26 02:50:10;;;;;;;4.88;2.13;;;1.30;99.90;;;;;;4972744;28;20038;-90
2021/04/26 02:52:51;;;;;;;4.28;2.00;;;1.30;99.90;;;;;;4971298;28;20105;-89
2021/04/26 02:55:20;;;;;;;3.67;2.22;;;1.20;99.90;;;;;;4971962;28;20042;-89
2021/04/26 02:57:47;;;;;;;2.70;2.17;;;1.20;99.90;;;;;;4968583;28;20114;-90
2021/04/26 03:00:18;;;;;;;6.03;2.15;;;1.20;99.90;;;;;;4973646;28;20038;-88
2021/04/26 03:03:03;;;;;;;4.25;2.50;;;1.10;99.90;;;;;;4956377;28;20085;-89
2021/04/26 03:05:30;;;;;;;6.15;2.28;;;1.10;99.90;;;;;;4971756;28;20035;-89
2021/04/26 03:07:55;;;;;;;3.40;2.15;;;1.10;99.90;;;;;;4974709;28;20591;-87
2021/04/26 03:10:22;;;;;;;4.45;2.35;;;1.00;99.90;;;;;;4987578;28;20057;-89
2021/04/26 03:12:51;;;;;;;10.38;2.47;;;1.00;99.90;;;;;;4970891;28;20054;-88
2021/04/26 03:15:20;;;;;;;4.90;2.42;;;1.00;99.90;;;;;;4971749;28;20031;-89
2021/04/26 03:17:46;;;;;;;5.07;2.72;;;1.00;99.90;;;;;;4983410;28;20035;-88
2021/04/26 03:20:15;;;;;;;4.38;2.20;;;1.00;99.90;;;;;;4985155;28;20524;-86
2021/04/26 03:22:56;;;;;;;3.60;2.00;;;1.00;99.90;;;;;;4987801;28;20034;-88
2021/04/26 03:25:22;;;;;;;4.05;2.35;;;1.00;99.90;;;;;;4956051;28;20039;-88
2021/04/26 03:27:52;;;;;;;3.47;2.30;;;1.00;99.90;;;;;;4973655;28;20075;-89
2021/04/26 03:30:22;;;;;;;4.00;2.00;;;1.00;99.90;;;;;;4971644;28;20027;-89
2021/04/26 03:33:00;;;;;;;5.55;2.40;;;1.00;99.90;;;;;;4972825;28;20034;-88
2021/04/26 03:35:27;;;;;;;3.60;2.30;;;1.00;99.90;;;;;;4984710;28;20406;-88
2021/04/26 03:37:54;;;;;;;3.20;2.15;;;0.90;99.90;;;;;;4970695;28;20067;-88
2021/04/26 03:40:23;;;;;;;5.13;2.30;;;0.90;99.90;;;;;;4970618;28;20035;-86
2021/04/26 03:42:54;;;;;;;3.33;2.03;;;0.90;99.90;;;;;;4987207;28;20062;-87
2021/04/26 03:45:21;;;;;;;3.65;2.33;;;0.90;99.90;;;;;;4988030;28;20496;-88
2021/04/26 03:48:06;;;;;;;4.10;2.00;;;0.90;99.90;;;;;;4971150;28;20065;-89
2021/04/26 03:50:52;;;;;;;6.68;2.42;;;0.80;99.90;;;;;;4972572;28;20118;-89
2021/04/26 03:53:55;;;;;;;4.55;2.50;;;0.70;99.90;;;;;;4971982;28;20113;-87
2021/04/26 03:56:34;;;;;;;8.13;2.25;;;0.70;99.90;;;;;;4976617;28;20039;-90
2021/04/26 03:59:02;;;;;;;2.80;2.05;;;0.70;99.90;;;;;;4980692;28;20058;-90
2021/04/26 04:01:29;;;;;;;5.45;2.30;;;0.60;99.90;;;;;;4955014;28;20063;-90
2021/04/26 04:03:58;;;;;;;6.85;2.72;;;0.60;99.90;;;;;;4986815;28;20058;-89
2021/04/26 04:06:26;;;;;;;4.47;2.45;;;0.60;99.90;;;;;;4987475;28;20046;-89
2021/04/26 04:09:10;;;;;;;3.00;1.98;;;0.60;99.90;;;;;;4968444;28;20050;-89
2021/04/26 04:11:54;;;;;;;4.32;2.33;;;0.60;99.90;;;;;;4979926;28;20138;-88
2021/04/26 04:14:31;;;;;;;3.13;2.10;;;0.60;99.90;;;;;;4980600;28;20441;-89
2021/04/26 04:17:03;;;;;;;4.10;2.13;;;0.50;99.90;;;;;;4988234;28;20027;-89
2021/04/26 04:19:29;;;;;;;5.00;2.50;;;0.50;99.90;;;;;;4970939;28;20031;-89
2021/04/26 04:21:57;;;;;;;2.78;2.22;;;0.50;99.90;;;;;;4973914;28;20490;-89
2021/04/26 04:24:23;;;;;;;6.57;2.47;;;0.50;99.90;;;;;;4959330;28;20565;-89
2021/04/26 04:26:50;;;;;;;4.63;2.28;;;0.50;99.90;;;;;;4960772;28;20098;-90
2021/04/26 04:29:17;;;;;;;4.90;2.78;;;0.60;99.90;;;;;;4957629;28;20090;-88
2021/04/26 04:31:48;;;;;;;4.10;2.22;;;0.60;99.90;;;;;;4958357;28;20034;-90
2021/04/26 04:34:37;;;;;;;5.70;2.35;;;0.60;99.90;;;;;;4988190;28;20094;-89
2021/04/26 04:37:32;;;;;;;2.92;2.05;;;0.70;99.90;;;;;;4997914;28;20122;-90
2021/04/26 04:40:33;;;;;;;3.78;2.35;;;0.70;99.90;;;;;;4981975;28;20606;-90
2021/04/26 04:43:03;;;;;;;3.55;2.10;;;0.80;99.90;;;;;;4986421;28;20039;-90
2021/04/26 04:45:40;;;;;;;3.65;2.42;;;0.80;99.90;;;;;;4985954;28;20035;-89
2021/04/26 04:48:33;;;;;;;4.10;2.33;;;0.80;99.90;;;;;;4974848;28;20102;-89
2021/04/26 04:51:00;;;;;;;6.03;2.60;;;0.80;99.90;;;;;;4973541;28;20038;-89
2021/04/26 04:53:26;;;;;;;3.53;2.47;;;0.80;99.90;;;;;;4968680;28;20023;-89
2021/04/26 04:55:52;;;;;;;4.82;2.88;;;0.90;99.90;;;;;;4974702;28;20409;-90
2021/04/26 04:58:23;;;;;;;3.97;2.38;;;1.00;99.90;;;;;;4973251;28;20033;-90
2021/04/26 05:00:49;;;;;;;3.45;2.08;;;1.00;99.90;;;;;;4973257;28;20066;-87
2021/04/26 05:03:34;;;;;;;4.25;2.47;;;1.00;99.90;;;;;;4982146;28;20045;-88
2021/04/26 05:06:18;;;;;;;6.80;3.03;;;1.10;99.90;;;;;;4988347;28;20054;-89
2021/04/26 05:09:04;;;;;;;3.60;2.10;;;1.10;99.90;;;;;;4988653;28;20090;-89
2021/04/26 05:11:48;;;;;;;7.03;2.80;;;1.20;99.90;;;;;;4974320;28;20405;-89
2021/04/26 05:14:33;;;;;;;3.83;2.42;;;1.30;99.90;;;;;;4988517;28;20045;-90
2021/04/26 05:17:00;;;;;;;3.15;2.60;;;1.40;99.90;;;;;;4974143;28;20505;-89
2021/04/26 05:19:26;;;;;;;6.70;2.75;;;1.40;99.90;;;;;;4988530;28;20030;-88
2021/04/26 05:21:52;;;;;;;4.47;2.80;;;1.50;99.90;;;;;;4973118;28;20023;-89
2021/04/26 05:24:25;;;;;;;4.25;2.67;;;1.60;99.90;;;;;;4962082;28;20410;-88
2021/04/26 05:26:51;;;;;;;7.53;2.67;;;1.80;99.90;;;;;;4970014;28;20086;-89
2021/04/26 05:29:19;;;;;;;4.20;2.70;;;1.90;99.90;;;;;;4989151;28;20562;-88
2021/04/26 05:31:45;;;;;;;3.67;2.35;;;2.10;99.90;;;;;;4971230;28;20078;-88
2021/04/26 05:34:11;;;;;;;4.18;2.50;;;2.40;99.90;;;;;;4973118;28;20031;-89
2021/04/26 05:36:40;;;;;;;3.83;2.75;;;2.80;99.90;;;;;;4992189;28;20035;-89
2021/04/26 05:39:06;;;;;;;4.90;2.40;;;3.30;99.90;;;;;;4990258;28;20399;-88
2021/04/26 05:41:34;;;;;;;4.40;2.92;;;3.80;99.90;;;;;;4972175;28;20026;-89
2021/04/26 05:44:02;;;;;;;4.40;2.35;;;4.30;99.90;;;;;;4970317;28;20031;-89
2021/04/26 05:46:34;;;;;;;4.63;2.50;;;4.80;99.90;;;;;;4974006;28;20027;-90
2021/04/26 05:49:00;;;;;;;3.92;2.50;;;5.40;99.90;;;;;;4999376;28;20053;-90
2021/04/26 05:51:26;;;;;;;4.45;2.75;;;5.90;99.90;;;;;;4971682;28;20122;-90
2021/04/26 05:53:51;;;;;;;5.07;2.92;;;6.40;99.90;;;;;;4972718;28;20474;-89
2021/04/26 05:56:17;;;;;;;6.32;2.78;;;6.80;99.90;;;;;;4972858;28;20038;-89
2021/04/26 05:58:43;;;;;;;4.88;2.67;;;7.20;99.90;;;;;;4987694;28;20035;-89
2021/04/26 06:01:09;;;;;;;4.32;2.47;;;7.60;99.90;;;;;;4999210;28;20502;-87
2021/04/26 06:03:35;;;;;;;3.20;2.05;;;7.90;98.80;;;;;;4967327;28;20035;-88
2021/04/26 06:06:01;;;;;;;5.32;2.60;;;8.20;96.10;;;;;;4961467;28;20417;-88
2021/04/26 06:08:27;;;;;;;3.38;2.03;;;8.50;95.50;;;;;;4975441;28;20039;-89
2021/04/26 06:10:53;;;;;;;4.15;2.80;;;8.80;95.10;;;;;;4988522;28;20042;-92
2021/04/26 06:13:19;;;;;;;2.50;1.90;;;9.10;93.10;;;;;;4986691;28;20429;-86
2021/04/26 06:15:45;;;;;;;5.40;2.45;;;9.40;91.30;;;;;;4973488;28;20089;-86
2021/04/26 06:18:13;;;;;;;6.80;3.03;;;9.70;90.20;;;;;;4973233;28;20042;-88
2021/04/26 06:20:40;;;;;;;3.22;2.35;;;9.90;85.90;;;;;;4973278;28;20030;-87
2021/04/26 06:23:06;;;;;;;3.55;2.00;;;10.20;84.20;;;;;;4974818;28;20061;-87
2021/04/26 06:25:34;;;;;;;3.58;2.00;;;10.40;83.70;;;;;;4973439;28;20401;-87
2021/04/26 06:28:00;;;;;;;2.33;1.75;;;10.70;80.00;;;;;;4970324;28;20045;-87
2021/04/26 06:30:25;;;;;;;4.75;2.03;;;11.00;77.20;;;;;;4971487;28;20482;-88
2021/04/26 06:32:51;;;;;;;3.85;1.92;;;11.30;74.40;;;;;;4967656;28;20449;-87
2021/04/26 06:35:21;;;;;;;5.53;1.85;;;11.60;71.70;;;;;;4980228;28;20069;-86
2021/04/26 06:37:47;;;;;;;4.22;2.03;;;11.90;72.40;;;;;;4988009;28;20050;-87
2021/04/26 06:40:13;;;;;;;2.78;1.83;;;12.20;69.00;;;;;;4984223;28;20039;-87
2021/04/26 06:42:39;;;;;;;3.28;2.15;;;12.60;67.80;;;;;;4982862;28;20118;-87
2021/04/26 06:45:06;;;;;;;4.65;2.08;;;12.90;64.30;;;;;;4978874;28;20121;-87
2021/04/26 06:47:31;;;;;;;3.60;2.10;;;13.10;60.30;;;;;;4972768;28;20050;-90
2021/04/26 06:49:58;;;;;;;2.75;1.85;;;13.30;59.10;;;;;;4990510;28;20027;-91
2021/04/26 06:52:23;;;;;;;2.17;1.70;;;13.50;58.60;;;;;;4974200;28;20042;-88
2021/04/26 06:54:49;;;;;;;1.85;1.50;;;13.60;56.80;;;;;;4990107;28;20027;-87
2021/04/26 06:57:15;;;;;;;3.83;1.98;;;13.70;56.50;;;;;;4973017;28;20549;-89
2021/04/26 06:59:41;;;;;;;4.57;1.60;;;14.00;56.50;;;;;;4971283;28;20119;-91
2021/04/26 07:02:16;;;;;;;3.20;1.60;;;14.10;55.80;;;;;;4989316;28;20037;-89
2021/04/26 07:04:45;;;;;;;3.05;1.40;;;14.20;54.50;;;;;;4991112;28;20034;-87
2021/04/26 07:07:11;;;;;;;3.40;1.23;;;14.50;54.40;;;;;;4973317;28;20047;-89
2021/04/26 07:09:37;;;;;;;4.00;1.75;;;14.80;53.70;;;;;;4973530;28;20037;-89
2021/04/26 07:12:03;;;;;;;5.18;1.52;;;15.10;50.70;;;;;;4949875;28;20938;-88
2021/04/26 07:14:28;;;;;;;3.05;1.38;;;15.50;50.70;;;;;;4966481;28;20029;-88
2021/04/26 07:16:54;;;;;;;2.05;1.30;;;15.90;50.10;;;;;;4976387;28;20510;-90
2021/04/26 07:19:20;;;;;;;2.65;1.45;;;16.30;50.30;;;;;;4962654;28;20406;-89
2021/04/26 07:21:46;;;;;;;1.67;1.10;;;16.50;46.60;;;;;;4965592;28;20038;-89
2021/04/26 07:24:11;;;;;;;1.63;0.88;;;16.00;43.50;;;;;;4965088;28;20461;-90
2021/04/26 07:26:37;;;;;;;4.10;1.45;;;15.60;46.40;;;;;;4963322;28;20042;-88
2021/04/26 07:29:03;;;;;;;1.33;1.08;;;15.60;44.00;;;;;;4963436;28;20031;-90
2021/04/26 07:31:29;;;;;;;4.30;0.88;;;14.70;43.60;;;;;;4984584;28;20027;-90
2021/04/26 07:33:55;;;;;;;1.92;1.25;;;13.70;45.10;;;;;;4951534;28;20490;-91
2021/04/26 07:36:21;;;;;;;1.05;0.80;;;12.70;46.70;;;;;;4952795;28;20502;-89
2021/04/26 07:38:47;;;;;;;2.05;0.85;;;12.30;50.80;;;;;;4965432;28;20039;-89
2021/04/26 07:41:13;;;;;;;0.70;0.70;;;12.70;50.20;;;;;;4970118;28;20039;-88
2021/04/26 07:43:39;;;;;;;2.97;0.77;;;12.90;50.40;;;;;;4964906;28;20084;-88
2021/04/26 07:46:06;;;;;;;1.83;0.88;;;13.40;47.80;;;;;;4978019;28;20039;-87
2021/04/26 07:48:31;;;;;;;1.35;0.68;;;13.90;43.50;;;;;;4945849;28;20403;-89
2021/04/26 07:50:57;;;;;;;0.88;0.55;;;14.00;44.60;;;;;;4960937;28;20039;-88
2021/04/26 07:53:23;;;;;;;0.75;0.52;;;14.10;45.40;;;;;;4961032;28;20028;-87
2021/04/26 07:55:49;;;;;;;0.98;0.50;;;13.80;44.90;;;;;;4951857;28;20050;-87
2021/04/26 07:58:15;;;;;;;1.55;0.88;;;13.90;45.40;;;;;;4981899;28;20030;-87
2021/04/26 08:00:41;;;;;;;0.60;0.40;;;13.70;43.20;;;;;;4982920;28;20497;-86
2021/04/26 08:03:06;;;;;;;0.80;0.50;;;13.60;43.60;;;;;;4979955;28;20077;-89
2021/04/26 08:05:32;;;;;;;2.30;0.70;;;13.20;43.70;;;;;;4967290;28;20090;-87
2021/04/26 08:07:58;;;;;;;1.30;0.80;;;12.90;46.50;;;;;;4980748;28;20039;-88
2021/04/26 08:10:24;;;;;;;0.85;0.60;;;12.90;43.60;;;;;;4959986;28;20110;-91
2021/04/26 08:12:49;;;;;;;2.97;0.70;;;12.80;47.40;;;;;;4978257;28;20746;-86
2021/04/26 08:15:16;;;;;;;4.18;0.85;;;12.80;46.60;;;;;;4982457;28;20635;-89
2021/04/26 08:17:42;;;;;;;0.57;0.45;;;12.60;44.20;;;;;;4968531;28;20039;-88
2021/04/26 08:20:09;;;;;;;0.77;0.50;;;12.40;45.70;;;;;;4983005;28;20097;-88
2021/04/26 08:22:34;;;;;;;2.13;0.70;;;12.10;45.60;;;;;;4981092;28;20094;-87
2021/04/26 08:25:00;;;;;;;2.38;0.55;;;11.90;47.20;;;;;;4969009;28;20035;-91
2021/04/26 08:27:26;;;;;;;1.50;1.15;;;12.00;49.10;;;;;;4985683;28;20093;-87
2021/04/26 08:29:52;;;;;;;0.50;0.50;;;12.20;46.10;;;;;;4981702;28;20074;-87
2021/04/26 08:32:19;;;;;;;1.83;0.60;;;12.10;45.30;;;;;;4984487;28;20168;-88
2021/04/26 08:34:44;;;;;;;1.02;0.70;;;12.00;46.80;;;;;;4985868;28;20446;-86
2021/04/26 08:37:10;;;;;;;0.80;0.52;;;11.90;44.20;;;;;;4982981;28;20129;-91
2021/04/26 08:39:36;;;;;;;0.90;0.50;;;11.90;47.60;;;;;;4969286;28;20023;-89
2021/04/26 08:42:02;;;;;;;1.48;0.60;;;12.00;46.90;;;;;;4969675;28;20031;-88
2021/04/26 08:44:28;;;;;;;1.95;0.60;;;12.00;47.20;;;;;;4985298;28;20121;-90
2021/04/26 08:46:56;;;;;;;1.27;0.63;;;12.00;47.30;;;;;;4965486;28;20042;-85
2021/04/26 08:49:22;;;;;;;1.70;0.52;;;11.90;47.20;;;;;;4973982;28;20047;-84
2021/04/26 08:51:48;;;;;;;0.63;0.50;;;11.80;47.80;;;;;;4966579;28;20027;-90
2021/04/26 08:54:17;;;;;;;1.17;0.50;;;11.70;47.80;;;;;;4967348;28;20030;-90
2021/04/26 08:56:44;;;;;;;3.33;0.90;;;11.60;48.00;;;;;;4967692;28;20630;-87
2021/04/26 08:59:11;;;;;;;0.50;0.50;;;11.50;46.30;;;;;;4968332;28;20390;-88
2021/04/26 09:01:37;;;;;;;0.70;0.50;;;11.20;47.00;;;;;;4972999;28;20035;-88
2021/04/26 09:04:07;;;;;;;1.95;0.70;;;11.00;49.60;;;;;;4968366;28;20053;-89
2021/04/26 09:06:54;;;;;;;1.55;0.57;;;10.90;47.60;;;;;;4985618;28;20125;-87
2021/04/26 09:09:37;;;;;;;0.55;0.55;;;10.80;47.40;;;;;;4949330;28;20090;-88
2021/04/26 09:12:05;;;;;;;1.13;0.70;;;10.70;49.20;;;;;;4988520;28;20039;-88
2021/04/26 09:14:42;;;;;;;0.57;0.57;;;10.70;48.00;;;;;;4964007;28;20041;-90
2021/04/26 09:17:28;;;;;;;1.00;0.65;;;10.60;48.60;;;;;;4972746;28;20131;-86
2021/04/26 09:20:00;;;;;;;1.52;0.88;;;10.60;48.80;;;;;;4983442;28;20058;-89
2021/04/26 09:22:54;;;;;;;2.63;0.60;;;10.50;48.20;;;;;;4968131;28;20031;-88
2021/04/26 09:25:40;;;;;;;1.40;0.50;;;10.40;51.50;;;;;;4968479;28;20043;-87
2021/04/26 09:28:13;;;;;;;3.50;0.63;;;10.30;50.90;;;;;;4981614;28;20034;-87
2021/04/26 09:30:50;;;;;;;0.80;0.63;;;10.30;50.10;;;;;;4984786;28;20023;-89
2021/04/26 09:33:34;;;;;;;2.97;0.57;;;10.30;51.10;;;;;;4981206;28;20606;-90
2021/04/26 09:36:23;;;;;;;0.85;0.68;;;10.30;48.40;;;;;;4981188;28;20039;-86
2021/04/26 09:38:51;;;;;;;0.73;0.60;;;10.30;49.50;;;;;;4968266;28;20046;-86
2021/04/26 09:41:23;;;;;;;1.38;0.73;;;10.20;48.00;;;;;;4968792;28;20027;-87
2021/04/26 09:44:10;;;;;;;1.85;0.70;;;10.00;49.80;;;;;;4984217;28;20081;-88
2021/04/26 09:46:43;;;;;;;1.73;0.70;;;9.90;50.10;;;;;;4980663;28;20554;-87
2021/04/26 09:49:14;;;;;;;0.68;0.60;;;9.90;51.50;;;;;;4965046;28;20114;-87
2021/04/26 09:51:56;;;;;;;0.93;0.70;;;10.00;50.70;;;;;;4985047;28;20081;-89
2021/04/26 09:54:41;;;;;;;1.33;0.70;;;10.00;50.20;;;;;;4982002;28;20030;-85
2021/04/26 09:57:07;;;;;;;2.40;1.13;;;10.10;50.30;;;;;;4966579;28;20647;-88
2021/04/26 09:59:33;;;;;;;1.33;0.63;;;10.10;51.30;;;;;;4985514;28;20612;-90
2021/04/26 10:02:00;;;;;;;0.82;0.73;;;10.20;50.00;;;;;;4966105;28;20039;-87
2021/04/26 10:04:26;;;;;;;1.30;0.75;;;10.20;50.20;;;;;;4984209;28;20129;-90
2021/04/26 10:06:52;;;;;;;0.98;0.60;;;10.30;49.80;;;;;;4985271;28;20042;-89
2021/04/26 10:09:19;;;;;;;0.63;0.45;;;10.30;49.50;;;;;;4951958;28;20085;-87
2021/04/26 10:11:45;;;;;;;1.15;0.50;;;10.30;50.90;;;;;;4973674;28;20038;-84
2021/04/26 10:14:15;;;;;;;2.08;0.70;;;10.40;50.30;;;;;;4968548;28;20034;-86
2021/04/26 10:16:55;;;;;;;1.50;0.50;;;10.30;48.20;;;;;;4968623;28;20331;-88
2021/04/26 10:19:35;;;;;;;1.52;1.40;;;10.20;47.20;;;;;;4977641;28;20401;-87
2021/04/26 10:22:02;;;;;;;0.60;0.60;;;10.00;48.70;;;;;;4959317;28;20350;-87
2021/04/26 10:24:31;;;;;;;1.35;0.75;;;10.10;49.20;;;;;;4968256;28;20524;-87
2021/04/26 10:27:05;;;;;;;1.95;0.77;;;10.00;49.40;;;;;;4982299;28;20039;-86
2021/04/26 10:29:35;;;;;;;1.98;0.90;;;10.10;50.70;;;;;;4983505;28;20129;-86
2021/04/26 10:32:14;;;;;;;2.47;0.90;;;10.20;51.10;;;;;;4981879;28;20158;-90
2021/04/26 10:34:43;;;;;;;0.50;0.50;;;10.30;49.40;;;;;;4968572;28;20053;-88
2021/04/26 10:37:15;;;;;;;7.13;5.18;;;10.30;49.50;;;;;;4979165;28;20564;-87
2021/04/26 10:40:04;;;;;;;1.85;1.08;;;10.40;50.80;;;;;;4982344;28;20038;-89
2021/04/26 10:42:42;;;;;;;3.42;2.05;;;10.50;50.90;;;;;;4986308;28;20022;-89
2021/04/26 10:45:20;;;;;;;4.82;2.03;;;10.50;48.30;;;;;;4966392;28;20070;-87
2021/04/26 10:47:55;;;;;;;1.80;1.42;;;10.60;46.20;;;;;;4972402;28;20035;-88
2021/04/26 10:50:20;;;;;;;1.05;0.70;;;10.60;48.00;;;;;;4982704;28;20557;-87
2021/04/26 10:52:54;;;;;;;2.72;1.20;;;10.60;48.00;;;;;;4970528;28;20114;-87
2021/04/26 10:55:22;;;;;;;0.70;0.65;;;10.60;49.40;;;;;;4968803;28;20374;-86
2021/04/26 10:57:51;;;;;;;0.70;0.57;;;10.70;49.50;;;;;;4983198;28;20135;-88
2021/04/26 11:00:23;;;;;;;2.67;0.50;;;10.80;49.90;;;;;;4959768;28;20368;-87
2021/04/26 11:02:50;;;;;;;0.90;0.50;;;11.00;49.80;;;;;;4979671;28;20033;-89
2021/04/26 11:05:27;;;;;;;0.60;0.50;;;11.10;45.80;;;;;;4966630;28;20035;-88
2021/04/26 11:08:05;;;;;;;1.55;0.88;;;11.10;46.20;;;;;;4951578;28;20031;-89
2021/04/26 11:10:40;;;;;;;1.10;0.65;;;11.00;45.60;;;;;;4965532;28;20146;-88
2021/04/26 11:13:25;;;;;;;;;;;10.90;44.50;;;;;;4964205;28;20090;-90
2021/04/26 11:16:04;;;;;;;3.00;1.95;;;10.80;47.30;;;;;;4967541;28;19920;-89
2021/04/26 11:18:35;;;;;;;0.73;0.57;;;11.00;48.40;;;;;;4980756;28;20046;-91
2021/04/26 11:21:03;;;;;;;2.60;0.50;;;11.10;47.20;;;;;;4970028;28;20027;-88
2021/04/26 11:23:48;;;;;;;0.68;0.50;;;11.10;47.20;;;;;;4980844;28;20110;-91
2021/04/26 11:26:22;;;;;;;1.23;0.88;;;11.20;47.70;;;;;;4982414;28;20097;-88
2021/04/26 11:29:09;;;;;;;3.67;1.20;;;11.30;45.80;;;;;;4966625;28;20146;-88
2021/04/26 11:32:01;;;;;;;1.30;0.80;;;11.30;46.20;;;;;;4986265;28;20027;-90
2021/04/26 11:34:47;;;;;;;1.90;0.50;;;11.40;47.00;;;;;;4984301;28;20466;-91
2021/04/26 11:37:33;;;;;;;0.77;0.52;;;11.60;48.90;;;;;;4991322;28;20039;-90
2021/04/26 11:39:59;;;;;;;1.15;0.98;;;12.00;45.90;;;;;;4986133;28;20081;-90
2021/04/26 11:42:27;;;;;;;5.88;1.27;;;12.40;40.50;;;;;;4975096;28;20041;-89
2021/04/26 11:44:54;;;;;;;0.88;0.80;;;12.50;42.30;;;;;;4970995;28;20031;-91
2021/04/26 11:47:22;;;;;;;0.68;0.52;;;12.60;44.30;;;;;;4976425;28;20043;-90
2021/04/26 11:49:53;;;;;;;0.90;0.70;;;12.70;44.60;;;;;;4977317;28;20380;-92
2021/04/26 11:52:28;;;;;;;1.38;0.65;;;13.00;44.20;;;;;;4990891;28;20031;-90
2021/04/26 11:55:06;;;;;;;1.20;0.50;;;13.40;41.00;;;;;;4958788;28;20065;-89
2021/04/26 11:57:54;;;;;;;0.75;0.63;;;13.60;38.90;;;;;;4991268;28;20042;-88
2021/04/26 12:00:24;;;;;;;0.85;0.52;;;13.90;40.00;;;;;;4987600;28;20038;-87
2021/04/26 12:02:53;;;;;;;1.73;0.85;;;14.30;41.00;;;;;;4951140;28;20035;-88
2021/04/26 12:05:26;;;;;;;0.68;0.65;;;14.20;36.20;;;;;;4985081;28;20065;-88
2021/04/26 12:07:52;;;;;;;1.70;0.55;;;13.90;40.30;;;;;;4974792;28;20023;-88
2021/04/26 12:10:26;;;;;;;3.05;0.63;;;13.90;42.50;;;;;;4974886;28;20041;-89
2021/04/26 12:13:02;;;;;;;0.90;0.70;;;14.00;40.90;;;;;;4974647;28;20092;-90
2021/04/26 12:15:28;;;;;;;2.40;0.80;;;14.00;37.90;;;;;;4990708;28;20035;-88
2021/04/26 12:17:58;;;;;;;1.15;0.70;;;13.50;37.90;;;;;;4958197;28;20038;-88
2021/04/26 12:20:35;;;;;;;1.10;0.60;;;13.10;39.10;;;;;;4969458;28;20114;-88
2021/04/26 12:23:04;;;;;;;1.00;0.60;;;13.00;41.00;;;;;;4990556;28;20039;-89
2021/04/26 12:25:45;;;;;;;1.15;0.60;;;13.30;43.40;;;;;;4984502;28;20118;-89
2021/04/26 12:28:15;;;;;;;2.42;1.00;;;13.80;43.90;;;;;;4969051;28;20125;-89
2021/04/26 12:30:43;;;;;;;1.02;0.50;;;14.30;38.80;;;;;;4974666;28;20128;-90
2021/04/26 12:33:25;;;;;;;0.85;0.65;;;14.30;36.30;;;;;;4974510;28;20462;-90
2021/04/26 12:35:53;;;;;;;2.45;0.75;;;14.00;37.40;;;;;;4970959;28;20126;-88
2021/04/26 12:38:27;;;;;;;1.05;0.77;;;13.80;40.80;;;;;;4973784;28;20434;-87
2021/04/26 12:40:53;;;;;;;1.20;0.50;;;13.80;37.30;;;;;;4978492;28;20030;-87
2021/04/26 12:43:19;;;;;;;1.60;0.88;;;14.00;38.70;;;;;;4985679;28;20042;-91
2021/04/26 12:45:49;;;;;;;0.73;0.60;;;14.50;40.80;;;;;;4997423;28;20030;-90
2021/04/26 12:48:29;;;;;;;2.20;0.70;;;14.90;38.20;;;;;;4997303;28;20030;-88
2021/04/26 12:50:55;;;;;;;1.63;0.90;;;15.30;39.50;;;;;;4973029;28;20409;-88
2021/04/26 12:53:22;;;;;;;1.38;1.05;;;15.70;39.90;;;;;;4974396;28;20045;-92
2021/04/26 12:56:10;;;;;;;1.27;0.80;;;16.20;37.90;;;;;;4993528;28;20653;-89
2021/04/26 12:58:44;;;;;;;1.10;0.73;;;16.60;39.00;;;;;;4987665;28;20529;-88
2021/04/26 13:01:13;;;;;;;0.80;0.60;;;17.10;37.30;;;;;;4991793;28;20039;-92
2021/04/26 13:03:41;;;;;;;2.75;0.75;;;17.40;34.50;;;;;;4991642;28;20504;-90
2021/04/26 13:06:16;;;;;;;0.70;0.70;;;17.10;32.70;;;;;;4976092;28;20038;-92
2021/04/26 13:08:44;;;;;;;;;;;17.00;33.30;;;;;;4990345;28;20031;-90
2021/04/26 13:11:28;;;;;;;0.90;0.40;;;17.10;34.00;;;;;;4975140;28;20258;-91
2021/04/26 13:13:57;;;;;;;0.98;0.70;;;17.50;33.80;;;;;;4976082;28;20030;-89